sensor_id;sensor_type;location;lat;lon;timestamp;pressure;altitude;pressure_sealevel;temperature;humidity
10688;BME280;5392;42.688;23.298;2023-05-23T00:00:58;57496.91;;;-144.48;100.00
10688;BME280;5392;42.688;23.298;2023-05-23T00:03:25;57465.59;;;-144.48;100.00
10688;BME280;5392;42.688;23.298;2023-05-23T00:05:52;57463.53;;;-144.48;100.00
10688;BME280;5392;42.688;23.298;2023-05-23T00:08:19;57432.22;;;-144.48;100.00
10688;BME280;5392;42.688;23.298;2023-05-23T00:10:45;57432.22;;;-144.48;100.00
10688;BME280;5392;42.688;23.298;2023-05-23T00:13:12;57478.13;;;-144.48;100.00
10688;BME280;5392;42.688;23.298;2023-05-23T00:15:40;57521.97;;;-144.48;100.00
10688;BME280;5392;42.688;23.298;2023-05-23T00:18:08;57428.03;;;-144.48;100.00
10688;BME280;5392;42.688;23.298;2023-05-23T00:20:37;57469.78;;;-144.48;100.00
10688;BME280;5392;42.688;23.298;2023-05-23T00:23:07;57451.00;;;-144.48;100.00
10688;BME280;5392;42.688;23.298;2023-05-23T00:25:35;57457.25;;;-144.48;100.00
10688;BME280;5392;42.688;23.298;2023-05-23T00:28:05;57459.34;;;-144.48;100.00
10688;BME280;5392;42.688;23.298;2023-05-23T00:30:32;57442.66;;;-144.48;100.00
10688;BME280;5392;42.688;23.298;2023-05-23T00:32:59;57448.91;;;-144.48;100.00
10688;BME280;5392;42.688;23.298;2023-05-23T00:35:26;57423.88;;;-144.48;100.00
10688;BME280;5392;42.688;23.298;2023-05-23T00:37:53;57430.13;;;-144.48;100.00
10688;BME280;5392;42.688;23.298;2023-05-23T00:40:21;57461.44;;;-144.48;100.00
10688;BME280;5392;42.688;23.298;2023-05-23T00:42:48;57455.16;;;-144.48;100.00
10688;BME280;5392;42.688;23.298;2023-05-23T00:45:15;57492.75;;;-144.48;100.00
10688;BME280;5392;42.688;23.298;2023-05-23T00:47:44;57467.69;;;-144.48;100.00
10688;BME280;5392;42.688;23.298;2023-05-23T00:50:14;57473.97;;;-144.48;100.00
10688;BME280;5392;42.688;23.298;2023-05-23T00:52:42;57446.81;;;-144.48;100.00
10688;BME280;5392;42.688;23.298;2023-05-23T00:55:11;57467.69;;;-144.48;100.00
10688;BME280;5392;42.688;23.298;2023-05-23T00:57:38;57451.00;;;-144.48;100.00
10688;BME280;5392;42.688;23.298;2023-05-23T01:00:13;57436.38;;;-144.48;100.00
10688;BME280;5392;42.688;23.298;2023-05-23T01:02:43;57459.34;;;-144.48;100.00
10688;BME280;5392;42.688;23.298;2023-05-23T01:05:13;57432.22;;;-144.48;100.00
10688;BME280;5392;42.688;23.298;2023-05-23T01:07:44;57453.09;;;-144.48;100.00
10688;BME280;5392;42.688;23.298;2023-05-23T01:10:13;57453.09;;;-144.48;100.00
10688;BME280;5392;42.688;23.298;2023-05-23T01:16:01;57469.78;;;-144.48;100.00
10688;BME280;5392;42.688;23.298;2023-05-23T01:18:59;57430.13;;;-144.48;100.00
10688;BME280;5392;42.688;23.298;2023-05-23T01:21:28;57476.03;;;-144.48;100.00
10688;BME280;5392;42.688;23.298;2023-05-23T01:29:31;57471.88;;;-144.48;100.00
10688;BME280;5392;42.688;23.298;2023-05-23T01:32:01;57509.44;;;-144.48;100.00
10688;BME280;5392;42.688;23.298;2023-05-23T01:34:30;57496.91;;;-144.48;100.00
10688;BME280;5392;42.688;23.298;2023-05-23T01:36:57;57463.53;;;-144.48;100.00
10688;BME280;5392;42.688;23.298;2023-05-23T01:39:24;57482.31;;;-144.48;100.00
10688;BME280;5392;42.688;23.298;2023-05-23T01:41:52;57505.25;;;-144.48;100.00
10688;BME280;5392;42.688;23.298;2023-05-23T01:44:19;57492.75;;;-144.48;100.00
10688;BME280;5392;42.688;23.298;2023-05-23T01:46:47;57490.66;;;-144.48;100.00
10688;BME280;5392;42.688;23.298;2023-05-23T01:49:15;57453.09;;;-144.48;100.00
10688;BME280;5392;42.688;23.298;2023-05-23T01:51:42;57457.25;;;-144.48;100.00
10688;BME280;5392;42.688;23.298;2023-05-23T01:54:10;57459.34;;;-144.48;100.00
10688;BME280;5392;42.688;23.298;2023-05-23T01:56:38;57453.09;;;-144.48;100.00
10688;BME280;5392;42.688;23.298;2023-05-23T01:59:06;57444.72;;;-144.48;100.00
10688;BME280;5392;42.688;23.298;2023-05-23T02:01:33;57457.25;;;-144.48;100.00
10688;BME280;5392;42.688;23.298;2023-05-23T02:04:00;57496.91;;;-144.48;100.00
10688;BME280;5392;42.688;23.298;2023-05-23T02:06:27;57467.69;;;-144.48;100.00
10688;BME280;5392;42.688;23.298;2023-05-23T02:08:54;57430.13;;;-144.48;100.00
10688;BME280;5392;42.688;23.298;2023-05-23T02:11:21;57465.59;;;-144.48;100.00
10688;BME280;5392;42.688;23.298;2023-05-23T02:13:48;57459.34;;;-144.48;100.00
10688;BME280;5392;42.688;23.298;2023-05-23T02:16:14;57430.13;;;-144.48;100.00
10688;BME280;5392;42.688;23.298;2023-05-23T02:18:41;57476.03;;;-144.48;100.00
10688;BME280;5392;42.688;23.298;2023-05-23T02:21:11;57446.81;;;-144.48;100.00
10688;BME280;5392;42.688;23.298;2023-05-23T02:23:38;57484.41;;;-144.48;100.00
10688;BME280;5392;42.688;23.298;2023-05-23T02:26:05;57463.53;;;-144.48;100.00
10688;BME280;5392;42.688;23.298;2023-05-23T02:28:32;57446.81;;;-144.48;100.00
10688;BME280;5392;42.688;23.298;2023-05-23T02:30:59;57446.81;;;-144.48;100.00
10688;BME280;5392;42.688;23.298;2023-05-23T02:33:25;57471.88;;;-144.48;100.00
10688;BME280;5392;42.688;23.298;2023-05-23T02:35:53;57503.19;;;-144.48;100.00
10688;BME280;5392;42.688;23.298;2023-05-23T02:38:21;57459.34;;;-144.48;100.00
10688;BME280;5392;42.688;23.298;2023-05-23T02:40:48;57471.88;;;-144.48;100.00
10688;BME280;5392;42.688;23.298;2023-05-23T02:43:18;57490.66;;;-144.48;100.00
10688;BME280;5392;42.688;23.298;2023-05-23T02:45:47;57446.81;;;-144.48;100.00
10688;BME280;5392;42.688;23.298;2023-05-23T02:48:14;57467.69;;;-144.48;100.00
10688;BME280;5392;42.688;23.298;2023-05-23T02:50:41;57440.56;;;-144.48;100.00
10688;BME280;5392;42.688;23.298;2023-05-23T02:53:08;57442.66;;;-144.48;100.00
10688;BME280;5392;42.688;23.298;2023-05-23T02:55:35;57471.88;;;-144.48;100.00
10688;BME280;5392;42.688;23.298;2023-05-23T02:58:02;57463.53;;;-144.48;100.00
10688;BME280;5392;42.688;23.298;2023-05-23T03:00:31;57473.97;;;-144.48;100.00
10688;BME280;5392;42.688;23.298;2023-05-23T03:02:58;57451.00;;;-144.48;100.00
10688;BME280;5392;42.688;23.298;2023-05-23T03:05:25;57526.13;;;-144.48;100.00
10688;BME280;5392;42.688;23.298;2023-05-23T03:07:51;57471.88;;;-144.48;100.00
10688;BME280;5392;42.688;23.298;2023-05-23T03:10:20;57465.59;;;-144.48;100.00
10688;BME280;5392;42.688;23.298;2023-05-23T03:12:46;57503.19;;;-144.48;100.00
10688;BME280;5392;42.688;23.298;2023-05-23T03:15:13;57444.72;;;-144.48;100.00
10688;BME280;5392;42.688;23.298;2023-05-23T03:17:41;57467.69;;;-144.48;100.00
10688;BME280;5392;42.688;23.298;2023-05-23T03:20:08;57476.03;;;-144.48;100.00
10688;BME280;5392;42.688;23.298;2023-05-23T03:22:36;57488.56;;;-144.48;100.00
10688;BME280;5392;42.688;23.298;2023-05-23T03:25:03;57446.81;;;-144.48;100.00
10688;BME280;5392;42.688;23.298;2023-05-23T03:27:30;57463.53;;;-144.48;100.00
10688;BME280;5392;42.688;23.298;2023-05-23T03:29:56;57501.09;;;-144.48;100.00
10688;BME280;5392;42.688;23.298;2023-05-23T03:32:23;57417.59;;;-144.48;100.00
10688;BME280;5392;42.688;23.298;2023-05-23T03:34:50;57471.88;;;-144.48;100.00
10688;BME280;5392;42.688;23.298;2023-05-23T03:37:17;57463.53;;;-144.48;100.00
10688;BME280;5392;42.688;23.298;2023-05-23T03:39:44;57471.88;;;-144.48;100.00
10688;BME280;5392;42.688;23.298;2023-05-23T03:42:11;57438.47;;;-144.48;100.00
10688;BME280;5392;42.688;23.298;2023-05-23T03:44:38;57476.03;;;-144.48;100.00
10688;BME280;5392;42.688;23.298;2023-05-23T03:47:05;57478.13;;;-144.48;100.00
10688;BME280;5392;42.688;23.298;2023-05-23T03:49:32;57463.53;;;-144.48;100.00
10688;BME280;5392;42.688;23.298;2023-05-23T03:51:59;57482.31;;;-144.48;100.00
10688;BME280;5392;42.688;23.298;2023-05-23T03:54:26;57440.56;;;-144.48;100.00
10688;BME280;5392;42.688;23.298;2023-05-23T03:56:53;57451.00;;;-144.48;100.00
10688;BME280;5392;42.688;23.298;2023-05-23T03:59:19;57467.69;;;-144.48;100.00
10688;BME280;5392;42.688;23.298;2023-05-23T04:01:46;57461.44;;;-144.48;100.00
10688;BME280;5392;42.688;23.298;2023-05-23T04:04:13;57482.31;;;-144.48;100.00
10688;BME280;5392;42.688;23.298;2023-05-23T04:06:40;57473.97;;;-144.48;100.00
10688;BME280;5392;42.688;23.298;2023-05-23T04:09:06;57492.75;;;-144.48;100.00
10688;BME280;5392;42.688;23.298;2023-05-23T04:11:33;57467.69;;;-144.48;100.00
10688;BME280;5392;42.688;23.298;2023-05-23T04:14:00;57455.16;;;-144.48;100.00
10688;BME280;5392;42.688;23.298;2023-05-23T04:16:27;57453.09;;;-144.48;100.00
10688;BME280;5392;42.688;23.298;2023-05-23T04:18:58;57463.53;;;-144.48;100.00
10688;BME280;5392;42.688;23.298;2023-05-23T04:21:25;57469.78;;;-144.48;100.00
10688;BME280;5392;42.688;23.298;2023-05-23T04:23:52;57459.34;;;-144.48;100.00
10688;BME280;5392;42.688;23.298;2023-05-23T04:26:19;57478.13;;;-144.48;100.00
10688;BME280;5392;42.688;23.298;2023-05-23T04:28:46;57467.69;;;-144.48;100.00
10688;BME280;5392;42.688;23.298;2023-05-23T04:31:14;57446.81;;;-144.48;100.00
10688;BME280;5392;42.688;23.298;2023-05-23T04:33:41;57457.25;;;-144.48;100.00
10688;BME280;5392;42.688;23.298;2023-05-23T04:36:08;57455.16;;;-144.48;100.00
10688;BME280;5392;42.688;23.298;2023-05-23T04:38:35;57461.44;;;-144.48;100.00
10688;BME280;5392;42.688;23.298;2023-05-23T04:41:05;57471.88;;;-144.48;100.00
10688;BME280;5392;42.688;23.298;2023-05-23T04:43:32;57482.31;;;-144.48;100.00
10688;BME280;5392;42.688;23.298;2023-05-23T04:46:02;57448.91;;;-144.48;100.00
10688;BME280;5392;42.688;23.298;2023-05-23T04:48:29;57455.16;;;-144.48;100.00
10688;BME280;5392;42.688;23.298;2023-05-23T04:50:56;57471.88;;;-144.48;100.00
10688;BME280;5392;42.688;23.298;2023-05-23T04:53:27;57471.88;;;-144.48;100.00
10688;BME280;5392;42.688;23.298;2023-05-23T04:55:54;57488.56;;;-144.48;100.00
10688;BME280;5392;42.688;23.298;2023-05-23T04:58:21;57467.69;;;-144.48;100.00
10688;BME280;5392;42.688;23.298;2023-05-23T05:00:48;57482.31;;;-144.48;100.00
10688;BME280;5392;42.688;23.298;2023-05-23T05:03:15;57478.13;;;-144.48;100.00
10688;BME280;5392;42.688;23.298;2023-05-23T05:05:42;57476.03;;;-144.48;100.00
10688;BME280;5392;42.688;23.298;2023-05-23T05:08:09;57469.78;;;-144.48;100.00
10688;BME280;5392;42.688;23.298;2023-05-23T05:10:40;57438.47;;;-144.48;100.00
10688;BME280;5392;42.688;23.298;2023-05-23T05:13:09;57486.47;;;-144.48;100.00
10688;BME280;5392;42.688;23.298;2023-05-23T05:15:36;57455.16;;;-144.48;100.00
10688;BME280;5392;42.688;23.298;2023-05-23T05:18:03;57421.78;;;-144.48;100.00
10688;BME280;5392;42.688;23.298;2023-05-23T05:20:30;57492.75;;;-144.48;100.00
10688;BME280;5392;42.688;23.298;2023-05-23T05:22:57;57471.88;;;-144.48;100.00
10688;BME280;5392;42.688;23.298;2023-05-23T05:25:25;57432.22;;;-144.48;100.00
10688;BME280;5392;42.688;23.298;2023-05-23T05:27:54;57461.44;;;-144.48;100.00
10688;BME280;5392;42.688;23.298;2023-05-23T05:30:21;57484.41;;;-144.48;100.00
10688;BME280;5392;42.688;23.298;2023-05-23T05:32:48;57471.88;;;-144.48;100.00
10688;BME280;5392;42.688;23.298;2023-05-23T05:35:15;57432.22;;;-144.48;100.00
10688;BME280;5392;42.688;23.298;2023-05-23T05:37:43;57480.22;;;-144.48;100.00
10688;BME280;5392;42.688;23.298;2023-05-23T05:40:11;57484.41;;;-144.48;100.00
10688;BME280;5392;42.688;23.298;2023-05-23T05:42:38;57476.03;;;-144.48;100.00
10688;BME280;5392;42.688;23.298;2023-05-23T05:45:05;57428.03;;;-144.48;100.00
10688;BME280;5392;42.688;23.298;2023-05-23T05:47:32;57461.44;;;-144.48;100.00
10688;BME280;5392;42.688;23.298;2023-05-23T05:49:59;57469.78;;;-144.48;100.00
10688;BME280;5392;42.688;23.298;2023-05-23T05:52:27;57473.97;;;-144.48;100.00
10688;BME280;5392;42.688;23.298;2023-05-23T05:54:54;57457.25;;;-144.48;100.00
10688;BME280;5392;42.688;23.298;2023-05-23T05:57:20;57488.56;;;-144.48;100.00
10688;BME280;5392;42.688;23.298;2023-05-23T05:59:47;57444.72;;;-144.48;100.00
10688;BME280;5392;42.688;23.298;2023-05-23T06:02:14;57471.88;;;-144.48;100.00
10688;BME280;5392;42.688;23.298;2023-05-23T06:04:41;57457.25;;;-144.48;100.00
10688;BME280;5392;42.688;23.298;2023-05-23T06:07:08;57428.03;;;-144.48;100.00
10688;BME280;5392;42.688;23.298;2023-05-23T06:09:35;57425.94;;;-144.48;100.00
10688;BME280;5392;42.688;23.298;2023-05-23T06:12:01;57436.38;;;-144.48;100.00
10688;BME280;5392;42.688;23.298;2023-05-23T06:14:28;57473.97;;;-144.48;100.00
10688;BME280;5392;42.688;23.298;2023-05-23T06:16:55;57442.66;;;-144.48;100.00
10688;BME280;5392;42.688;23.298;2023-05-23T06:19:23;57476.03;;;-144.48;100.00
10688;BME280;5392;42.688;23.298;2023-05-23T06:21:50;57442.66;;;-144.48;100.00
10688;BME280;5392;42.688;23.298;2023-05-23T06:24:17;57421.78;;;-144.48;100.00
10688;BME280;5392;42.688;23.298;2023-05-23T06:26:44;57421.78;;;-144.48;100.00
10688;BME280;5392;42.688;23.298;2023-05-23T06:29:12;57446.81;;;-144.48;100.00
10688;BME280;5392;42.688;23.298;2023-05-23T06:31:38;57473.97;;;-144.48;100.00
10688;BME280;5392;42.688;23.298;2023-05-23T06:34:05;57451.00;;;-144.48;100.00
10688;BME280;5392;42.688;23.298;2023-05-23T06:36:32;57417.59;;;-144.48;100.00
10688;BME280;5392;42.688;23.298;2023-05-23T06:38:59;57444.72;;;-144.48;97.67
10688;BME280;5392;42.688;23.298;2023-05-23T06:41:26;57394.63;;;-144.48;84.64
10688;BME280;5392;42.688;23.298;2023-05-23T06:43:53;57421.78;;;-144.48;68.54
10688;BME280;5392;42.688;23.298;2023-05-23T06:46:20;57403.00;;;-144.48;62.78
10688;BME280;5392;42.688;23.298;2023-05-23T06:48:47;57419.69;;;-144.48;57.56
10688;BME280;5392;42.688;23.298;2023-05-23T06:51:24;57380.03;;;-144.48;54.18
10688;BME280;5392;42.688;23.298;2023-05-23T06:53:51;57390.47;;;-144.48;51.72
10688;BME280;5392;42.688;23.298;2023-05-23T06:56:18;57352.91;;;-144.48;52.07
10688;BME280;5392;42.688;23.298;2023-05-23T06:58:45;57384.19;;;-144.48;53.58
10688;BME280;5392;42.688;23.298;2023-05-23T07:01:12;57334.09;;;-144.48;52.77
10688;BME280;5392;42.688;23.298;2023-05-23T07:03:39;57342.47;;;-144.48;54.66
10688;BME280;5392;42.688;23.298;2023-05-23T07:06:08;57336.19;;;-144.48;54.51
10688;BME280;5392;42.688;23.298;2023-05-23T07:08:36;57346.63;;;-144.48;53.98
10688;BME280;5392;42.688;23.298;2023-05-23T07:11:03;57371.69;;;-144.48;53.96
10688;BME280;5392;42.688;23.298;2023-05-23T07:13:30;57363.31;;;-144.48;54.08
10688;BME280;5392;42.688;23.298;2023-05-23T07:15:56;57350.81;;;-144.48;54.42
10688;BME280;5392;42.688;23.298;2023-05-23T07:18:24;57352.91;;;-144.48;55.42
10688;BME280;5392;42.688;23.298;2023-05-23T07:20:52;57344.53;;;-144.48;57.09
10688;BME280;5392;42.688;23.298;2023-05-23T07:23:21;57373.75;;;-144.48;57.18
10688;BME280;5392;42.688;23.298;2023-05-23T07:25:49;57373.75;;;-144.48;55.88
10688;BME280;5392;42.688;23.298;2023-05-23T07:28:28;57407.16;;;-144.48;57.54
10688;BME280;5392;42.688;23.298;2023-05-23T07:30:54;57409.25;;;-144.48;57.79
10688;BME280;5392;42.688;23.298;2023-05-23T07:33:24;57392.56;;;-144.48;57.47
10688;BME280;5392;42.688;23.298;2023-05-23T07:35:50;57367.50;;;-144.48;57.83
10688;BME280;5392;42.688;23.298;2023-05-23T07:38:17;57423.88;;;-144.48;57.86
10688;BME280;5392;42.688;23.298;2023-05-23T07:40:46;57361.25;;;-144.48;57.16
10688;BME280;5392;42.688;23.298;2023-05-23T07:43:28;57344.53;;;-144.48;56.13
10688;BME280;5392;42.688;23.298;2023-05-23T07:45:55;57354.97;;;-144.48;58.35
10688;BME280;5392;42.688;23.298;2023-05-23T07:48:22;57415.50;;;-144.48;56.79
10688;BME280;5392;42.688;23.298;2023-05-23T07:50:49;57375.84;;;-144.48;56.24
10688;BME280;5392;42.688;23.298;2023-05-23T07:53:20;57388.38;;;-144.48;57.00
10688;BME280;5392;42.688;23.298;2023-05-23T07:55:48;57388.38;;;-144.48;58.71
10688;BME280;5392;42.688;23.298;2023-05-23T07:58:14;57407.16;;;-144.48;57.38
10688;BME280;5392;42.688;23.298;2023-05-23T08:00:42;57373.75;;;-144.48;55.57
10688;BME280;5392;42.688;23.298;2023-05-23T08:03:11;57390.47;;;-144.48;57.22
10688;BME280;5392;42.688;23.298;2023-05-23T08:05:38;57392.56;;;-144.48;57.62
10688;BME280;5392;42.688;23.298;2023-05-23T08:08:05;57403.00;;;-144.48;59.79
10688;BME280;5392;42.688;23.298;2023-05-23T08:10:32;57453.09;;;-144.48;59.93
10688;BME280;5392;42.688;23.298;2023-05-23T08:12:59;57413.44;;;-144.48;60.35
10688;BME280;5392;42.688;23.298;2023-05-23T08:15:26;57415.50;;;-144.48;59.22
10688;BME280;5392;42.688;23.298;2023-05-23T08:17:54;57415.50;;;-144.48;60.65
10688;BME280;5392;42.688;23.298;2023-05-23T08:20:23;57425.94;;;-144.48;62.64
10688;BME280;5392;42.688;23.298;2023-05-23T08:22:59;57388.38;;;-144.48;61.15
10688;BME280;5392;42.688;23.298;2023-05-23T08:25:27;57403.00;;;-144.48;62.89
10688;BME280;5392;42.688;23.298;2023-05-23T08:27:59;57473.97;;;-144.48;61.41
10688;BME280;5392;42.688;23.298;2023-05-23T08:30:27;57396.72;;;-144.48;59.62
10688;BME280;5392;42.688;23.298;2023-05-23T08:32:55;57451.00;;;-144.48;60.56
10688;BME280;5392;42.688;23.298;2023-05-23T08:35:22;57421.78;;;-144.48;60.48
10688;BME280;5392;42.688;23.298;2023-05-23T08:37:50;57417.59;;;-144.48;63.54
10688;BME280;5392;42.688;23.298;2023-05-23T08:40:21;57415.50;;;-144.48;61.70
10688;BME280;5392;42.688;23.298;2023-05-23T08:42:49;57446.81;;;-144.48;63.79
10688;BME280;5392;42.688;23.298;2023-05-23T08:45:16;57413.44;;;-144.48;61.55
10688;BME280;5392;42.688;23.298;2023-05-23T08:47:45;57448.91;;;-144.48;61.07
10688;BME280;5392;42.688;23.298;2023-05-23T08:50:15;57444.72;;;-144.48;61.96
10688;BME280;5392;42.688;23.298;2023-05-23T08:52:54;57432.22;;;-144.48;60.63
10688;BME280;5392;42.688;23.298;2023-05-23T08:55:26;57444.72;;;-144.48;60.32
10688;BME280;5392;42.688;23.298;2023-05-23T08:57:54;57409.25;;;-144.48;59.94
10688;BME280;5392;42.688;23.298;2023-05-23T09:00:22;57396.72;;;-144.48;62.24
10688;BME280;5392;42.688;23.298;2023-05-23T09:02:52;57415.50;;;-144.48;60.84
10688;BME280;5392;42.688;23.298;2023-05-23T09:05:20;57428.03;;;-144.48;61.45
10688;BME280;5392;42.688;23.298;2023-05-23T09:07:48;57421.78;;;-144.48;61.28
10688;BME280;5392;42.688;23.298;2023-05-23T09:10:18;57423.88;;;-144.48;61.24
10688;BME280;5392;42.688;23.298;2023-05-23T09:12:48;57471.88;;;-144.48;60.18
10688;BME280;5392;42.688;23.298;2023-05-23T09:15:15;57419.69;;;-144.48;60.03
10688;BME280;5392;42.688;23.298;2023-05-23T09:17:43;57386.28;;;-144.48;59.08
10688;BME280;5392;42.688;23.298;2023-05-23T09:20:15;57436.38;;;-144.48;59.11
10688;BME280;5392;42.688;23.298;2023-05-23T09:22:47;57417.59;;;-144.48;58.22
10688;BME280;5392;42.688;23.298;2023-05-23T09:25:14;57375.84;;;-144.48;60.20
10688;BME280;5392;42.688;23.298;2023-05-23T09:27:42;57459.34;;;-144.48;58.61
10688;BME280;5392;42.688;23.298;2023-05-23T09:30:14;57421.78;;;-144.48;59.12
10688;BME280;5392;42.688;23.298;2023-05-23T09:32:41;57451.00;;;-144.48;59.22
10688;BME280;5392;42.688;23.298;2023-05-23T09:35:10;57423.88;;;-144.48;59.32
10688;BME280;5392;42.688;23.298;2023-05-23T09:37:44;57430.13;;;-144.48;58.17
10688;BME280;5392;42.688;23.298;2023-05-23T09:40:14;57446.81;;;-144.48;59.87
10688;BME280;5392;42.688;23.298;2023-05-23T09:42:46;57407.16;;;-144.48;59.82
10688;BME280;5392;42.688;23.298;2023-05-23T09:45:14;57446.81;;;-144.48;58.96
10688;BME280;5392;42.688;23.298;2023-05-23T09:47:51;57432.22;;;-144.48;59.55
10688;BME280;5392;42.688;23.298;2023-05-23T09:50:19;57465.59;;;-144.48;58.83
10688;BME280;5392;42.688;23.298;2023-05-23T09:52:46;57455.16;;;-144.48;59.03
10688;BME280;5392;42.688;23.298;2023-05-23T09:55:13;57411.34;;;-144.48;58.48
10688;BME280;5392;42.688;23.298;2023-05-23T09:57:42;57446.81;;;-144.48;59.41
10688;BME280;5392;42.688;23.298;2023-05-23T10:00:10;57409.25;;;-144.48;57.24
10688;BME280;5392;42.688;23.298;2023-05-23T10:05:48;57421.78;;;-144.48;57.99
10688;BME280;5392;42.688;23.298;2023-05-23T10:08:42;57400.91;;;-144.48;57.35
10688;BME280;5392;42.688;23.298;2023-05-23T10:13:43;57392.56;;;-144.48;57.28
10688;BME280;5392;42.688;23.298;2023-05-23T10:16:18;57405.06;;;-144.48;58.02
10688;BME280;5392;42.688;23.298;2023-05-23T10:18:54;57421.78;;;-144.48;57.74
10688;BME280;5392;42.688;23.298;2023-05-23T10:21:28;57432.22;;;-144.48;57.13
10688;BME280;5392;42.688;23.298;2023-05-23T10:24:02;57430.13;;;-144.48;56.72
10688;BME280;5392;42.688;23.298;2023-05-23T10:26:31;57471.88;;;-144.48;56.36
10688;BME280;5392;42.688;23.298;2023-05-23T10:28:59;57417.59;;;-144.48;56.93
10688;BME280;5392;42.688;23.298;2023-05-23T10:31:26;57405.06;;;-144.48;56.48
10688;BME280;5392;42.688;23.298;2023-05-23T10:34:04;57436.38;;;-144.48;56.44
10688;BME280;5392;42.688;23.298;2023-05-23T10:36:42;57455.16;;;-144.48;57.15
10688;BME280;5392;42.688;23.298;2023-05-23T10:42:40;57461.44;;;-144.48;55.42
10688;BME280;5392;42.688;23.298;2023-05-23T10:45:17;57459.34;;;-144.48;55.66
10688;BME280;5392;42.688;23.298;2023-05-23T10:47:46;57440.56;;;-144.48;56.30
10688;BME280;5392;42.688;23.298;2023-05-23T10:50:29;57488.56;;;-144.48;56.47
10688;BME280;5392;42.688;23.298;2023-05-23T10:52:59;57436.38;;;-144.48;56.22
10688;BME280;5392;42.688;23.298;2023-05-23T10:55:34;57453.09;;;-144.48;56.45
10688;BME280;5392;42.688;23.298;2023-05-23T10:58:09;57409.25;;;-144.48;55.34
10688;BME280;5392;42.688;23.298;2023-05-23T11:00:37;57448.91;;;-144.48;55.14
10688;BME280;5392;42.688;23.298;2023-05-23T11:03:05;57409.25;;;-144.48;55.69
10688;BME280;5392;42.688;23.298;2023-05-23T11:05:34;57453.09;;;-144.48;56.79
10688;BME280;5392;42.688;23.298;2023-05-23T11:10:54;57463.53;;;-144.48;55.06
10688;BME280;5392;42.688;23.298;2023-05-23T11:13:22;57436.38;;;-144.48;55.43
10688;BME280;5392;42.688;23.298;2023-05-23T11:15:49;57451.00;;;-144.48;55.62
10688;BME280;5392;42.688;23.298;2023-05-23T11:18:25;57384.19;;;-144.48;55.34
10688;BME280;5392;42.688;23.298;2023-05-23T11:20:53;57459.34;;;-144.48;54.66
10688;BME280;5392;42.688;23.298;2023-05-23T11:23:21;57430.13;;;-144.48;55.55
10688;BME280;5392;42.688;23.298;2023-05-23T11:25:49;57440.56;;;-144.48;55.77
10688;BME280;5392;42.688;23.298;2023-05-23T11:28:17;57398.81;;;-144.48;55.26
10688;BME280;5392;42.688;23.298;2023-05-23T11:30:47;57413.44;;;-144.48;55.22
10688;BME280;5392;42.688;23.298;2023-05-23T11:33:14;57400.91;;;-144.48;55.62
10688;BME280;5392;42.688;23.298;2023-05-23T11:35:44;57451.00;;;-144.48;56.09
10688;BME280;5392;42.688;23.298;2023-05-23T11:38:13;57419.69;;;-144.48;55.90
10688;BME280;5392;42.688;23.298;2023-05-23T11:40:42;57428.03;;;-144.48;55.85
10688;BME280;5392;42.688;23.298;2023-05-23T11:43:12;57446.81;;;-144.48;55.74
10688;BME280;5392;42.688;23.298;2023-05-23T11:45:40;57453.09;;;-144.48;55.06
10688;BME280;5392;42.688;23.298;2023-05-23T11:48:13;57394.63;;;-144.48;55.55
10688;BME280;5392;42.688;23.298;2023-05-23T11:53:12;57423.88;;;-144.48;55.75
10688;BME280;5392;42.688;23.298;2023-05-23T11:55:40;57419.69;;;-144.48;56.05
10688;BME280;5392;42.688;23.298;2023-05-23T11:58:13;57467.69;;;-144.48;55.62
10688;BME280;5392;42.688;23.298;2023-05-23T12:00:46;57463.53;;;-144.48;55.65
10688;BME280;5392;42.688;23.298;2023-05-23T12:03:13;57421.78;;;-144.48;55.69
10688;BME280;5392;42.688;23.298;2023-05-23T12:05:42;57398.81;;;-144.48;56.41
10688;BME280;5392;42.688;23.298;2023-05-23T12:08:11;57444.72;;;-144.48;56.28
10688;BME280;5392;42.688;23.298;2023-05-23T12:10:51;57494.81;;;-144.48;56.48
10688;BME280;5392;42.688;23.298;2023-05-23T12:13:19;57421.78;;;-144.48;55.98
10688;BME280;5392;42.688;23.298;2023-05-23T12:15:52;57465.59;;;-144.48;55.46
10688;BME280;5392;42.688;23.298;2023-05-23T12:18:19;57413.44;;;-144.48;55.64
10688;BME280;5392;42.688;23.298;2023-05-23T12:20:50;57448.91;;;-144.48;54.48
10688;BME280;5392;42.688;23.298;2023-05-23T12:23:19;57428.03;;;-144.48;55.74
10688;BME280;5392;42.688;23.298;2023-05-23T12:25:51;57463.53;;;-144.48;55.07
10688;BME280;5392;42.688;23.298;2023-05-23T12:28:42;57405.06;;;-144.48;54.48
10688;BME280;5392;42.688;23.298;2023-05-23T12:31:19;57400.91;;;-144.48;54.54
10688;BME280;5392;42.688;23.298;2023-05-23T12:33:47;57446.81;;;-144.48;54.35
10688;BME280;5392;42.688;23.298;2023-05-23T12:36:21;57448.91;;;-144.48;54.62
10688;BME280;5392;42.688;23.298;2023-05-23T12:38:48;57438.47;;;-144.48;54.97
10688;BME280;5392;42.688;23.298;2023-05-23T12:41:16;57446.81;;;-144.48;55.43
10688;BME280;5392;42.688;23.298;2023-05-23T12:43:52;57419.69;;;-144.48;54.74
10688;BME280;5392;42.688;23.298;2023-05-23T12:46:25;57430.13;;;-144.48;55.79
10688;BME280;5392;42.688;23.298;2023-05-23T12:48:53;57451.00;;;-144.48;55.49
10688;BME280;5392;42.688;23.298;2023-05-23T12:51:20;57438.47;;;-144.48;55.41
10688;BME280;5392;42.688;23.298;2023-05-23T12:53:47;57428.03;;;-144.48;54.00
10688;BME280;5392;42.688;23.298;2023-05-23T12:56:14;57409.25;;;-144.48;54.43
10688;BME280;5392;42.688;23.298;2023-05-23T12:58:41;57425.94;;;-144.48;54.38
10688;BME280;5392;42.688;23.298;2023-05-23T13:01:08;57459.34;;;-144.48;54.00
10688;BME280;5392;42.688;23.298;2023-05-23T13:03:37;57400.91;;;-144.48;54.11
10688;BME280;5392;42.688;23.298;2023-05-23T13:06:04;57451.00;;;-144.48;53.40